Time;durP1;ratioP1;P1;durP2;ratioP2;P2;SDS_P1;SDS_P2;PMS_P1;PMS_P2;Temp;Humidity;BMP_temperature;BMP_pressure;BME280_temperature;BME280_humidity;BME280_pressure;Samples;Min_cycle;Max_cycle;Signal;HPM_P1;HPM_P2
2022/02/05 00:02:38;;;;;;;63.03;3.72;;;;;;;;;;5086737;28;20216;-70
2022/02/05 00:05:07;;;;;;;58.72;2.95;;;;;;;;;;5095067;28;20254;-69
2022/02/05 00:07:38;;;;;;;58.17;3.15;;;;;;;;;;5092181;28;20661;-70
2022/02/05 00:10:58;;;;;;;58.10;3.10;;;;;;;;;;5094996;28;20201;-70
2022/02/05 00:38:22;;;;;;;58.17;3.00;;;;;;;;;;5087228;28;20200;-69
2022/02/05 00:40:55;;;;;;;58.15;2.95;;;;;;;;;;5089180;28;20232;-69
2022/02/05 00:43:23;;;;;;;57.90;2.75;;;;;;;;;;5088924;28;20688;-69
2022/02/05 00:45:53;;;;;;;58.15;2.95;;;;;;;;;;5088679;28;20288;-69
2022/02/05 00:48:22;;;;;;;57.97;3.03;;;;;;;;;;5088736;28;20207;-69
2022/02/05 00:50:54;;;;;;;58.28;3.28;;;;;;;;;;5088768;28;20711;-69
2022/02/05 00:53:32;;;;;;;58.63;3.03;;;;;;;;;;5088904;28;20603;-70
2022/02/05 00:56:07;;;;;;;59.13;3.50;;;;;;;;;;5088594;28;20320;-69
2022/02/05 00:58:38;;;;;;;58.78;3.70;;;;;;;;;;5088361;28;20248;-69
2022/02/05 01:01:05;;;;;;;57.75;3.25;;;;;;;;;;5088954;28;20209;-69
2022/02/05 01:03:34;;;;;;;58.15;3.00;;;;;;;;;;5088498;28;20620;-71
2022/02/05 01:06:01;;;;;;;58.13;3.35;;;;;;;;;;5088648;28;20205;-70
2022/02/05 01:08:29;;;;;;;58.20;3.03;;;;;;;;;;5088275;28;20251;-70
2022/02/05 01:10:56;;;;;;;58.95;3.45;;;;;;;;;;5086560;28;20745;-70
2022/02/05 01:13:24;;;;;;;58.58;3.58;;;;;;;;;;5088269;28;20231;-69
2022/02/05 01:16:00;;;;;;;63.40;3.10;;;;;;;;;;5088271;28;20323;-70
2022/02/05 01:18:28;;;;;;;61.72;3.45;;;;;;;;;;5088051;28;20254;-70
2022/02/05 01:21:08;;;;;;;59.38;3.40;;;;;;;;;;5088310;28;20213;-70
2022/02/05 01:23:41;;;;;;;59.20;3.67;;;;;;;;;;5088333;28;20321;-70
2022/02/05 01:26:16;;;;;;;60.63;3.97;;;;;;;;;;5083008;28;20233;-70
2022/02/05 01:28:46;;;;;;;58.50;3.35;;;;;;;;;;5074287;28;20258;-70
2022/02/05 01:31:14;;;;;;;59.50;3.45;;;;;;;;;;5074508;28;20566;-70
2022/02/05 01:50:36;;;;;;;60.05;3.75;;;;;;;;;;5032868;28;20214;-70
2022/02/05 01:53:12;;;;;;;59.92;4.18;;;;;;;;;;5054214;28;20612;-70
2022/02/05 01:55:55;;;;;;;58.78;3.75;;;;;;;;;;5054092;28;20226;-70
2022/02/05 01:58:34;;;;;;;58.40;3.10;;;;;;;;;;5053777;28;20241;-70
2022/02/05 02:06:49;;;;;;;59.20;3.20;;;;;;;;;;5053878;28;20201;-70
2022/02/05 02:12:06;;;;;;;58.17;3.40;;;;;;;;;;5053516;28;20206;-70
2022/02/05 02:14:40;;;;;;;61.63;4.32;;;;;;;;;;5051537;28;20230;-69
2022/02/05 02:17:44;;;;;;;60.63;3.20;;;;;;;;;;5053627;28;20237;-69
2022/02/05 02:20:27;;;;;;;59.22;3.40;;;;;;;;;;5053435;28;20214;-69
2022/02/05 02:23:10;;;;;;;58.30;3.40;;;;;;;;;;5053423;28;20655;-70
2022/02/05 02:25:51;;;;;;;58.50;3.40;;;;;;;;;;5053265;28;20233;-70
2022/02/05 02:28:23;;;;;;;66.60;5.00;;;;;;;;;;5053288;28;20206;-70
2022/02/05 02:30:57;;;;;;;60.20;3.40;;;;;;;;;;5053560;28;20203;-70
2022/02/05 02:33:30;;;;;;;59.17;3.35;;;;;;;;;;5053161;28;20222;-70
2022/02/05 02:35:57;;;;;;;61.10;3.22;;;;;;;;;;5053228;28;20626;-70
2022/02/05 02:38:34;;;;;;;59.25;3.50;;;;;;;;;;5051659;28;20202;-70
2022/02/05 02:41:06;;;;;;;58.10;3.38;;;;;;;;;;5053225;28;20220;-70
2022/02/05 02:43:34;;;;;;;58.65;3.50;;;;;;;;;;5052795;28;20316;-70
2022/02/05 02:46:02;;;;;;;59.20;3.80;;;;;;;;;;5049957;28;20953;-70
2022/02/05 02:48:29;;;;;;;58.78;3.55;;;;;;;;;;5052608;28;20206;-70
2022/02/05 02:56:47;;;;;;;58.70;3.72;;;;;;;;;;5052707;28;20591;-69
2022/02/05 02:59:27;;;;;;;62.10;3.97;;;;;;;;;;5052789;28;20206;-69
2022/02/05 03:02:01;;;;;;;61.08;3.50;;;;;;;;;;5052894;28;20206;-69
2022/02/05 03:04:28;;;;;;;59.03;3.45;;;;;;;;;;5052361;28;20241;-69
2022/02/05 03:06:56;;;;;;;59.70;4.47;;;;;;;;;;5052590;28;20264;-69
2022/02/05 03:09:25;;;;;;;59.70;3.80;;;;;;;;;;5052396;28;20206;-68
2022/02/05 03:11:52;;;;;;;62.28;3.75;;;;;;;;;;5052528;28;20210;-69
2022/02/05 03:14:19;;;;;;;58.97;4.18;;;;;;;;;;5052251;28;20245;-69
2022/02/05 03:16:51;;;;;;;59.63;3.70;;;;;;;;;;5058712;28;20229;-69
2022/02/05 03:19:18;;;;;;;60.80;4.10;;;;;;;;;;5072087;28;20205;-69
2022/02/05 03:21:45;;;;;;;61.42;3.85;;;;;;;;;;5072537;28;20209;-69
2022/02/05 03:24:13;;;;;;;59.50;3.90;;;;;;;;;;5072357;28;20710;-69
2022/02/05 03:26:42;;;;;;;59.65;3.65;;;;;;;;;;5072395;28;20284;-70
2022/02/05 03:29:11;;;;;;;61.08;4.40;;;;;;;;;;5072006;28;20206;-69
2022/02/05 03:31:39;;;;;;;59.40;4.05;;;;;;;;;;5072097;28;20212;-70
2022/02/05 03:34:07;;;;;;;58.08;3.50;;;;;;;;;;5071954;28;20232;-69
2022/02/05 03:36:36;;;;;;;58.08;4.03;;;;;;;;;;5072293;28;20257;-69
2022/02/05 03:39:04;;;;;;;58.88;3.58;;;;;;;;;;5072027;28;20209;-69
2022/02/05 03:41:31;;;;;;;62.92;4.13;;;;;;;;;;5072003;28;20677;-69
2022/02/05 03:44:00;;;;;;;59.70;4.38;;;;;;;;;;5071918;28;20604;-69
2022/02/05 03:46:29;;;;;;;60.30;4.07;;;;;;;;;;5071644;28;20323;-69
2022/02/05 03:48:56;;;;;;;62.00;4.00;;;;;;;;;;5069476;28;20686;-69
2022/02/05 03:51:24;;;;;;;60.80;4.35;;;;;;;;;;5072204;28;20290;-69
2022/02/05 03:53:52;;;;;;;58.88;4.22;;;;;;;;;;5071831;28;20639;-68
2022/02/05 03:56:19;;;;;;;59.20;4.18;;;;;;;;;;5071694;28;20312;-68
2022/02/05 03:58:46;;;;;;;58.67;3.47;;;;;;;;;;5071444;28;20696;-69
2022/02/05 04:01:15;;;;;;;59.20;4.03;;;;;;;;;;5071937;28;20228;-69
2022/02/05 04:03:42;;;;;;;64.13;5.32;;;;;;;;;;5071778;28;20256;-69
2022/02/05 04:06:09;;;;;;;58.30;4.00;;;;;;;;;;5071853;28;20276;-69
2022/02/05 04:08:37;;;;;;;58.60;4.00;;;;;;;;;;5071521;28;20209;-69
2022/02/05 04:11:08;;;;;;;59.38;4.13;;;;;;;;;;5071693;28;20209;-69
2022/02/05 04:16:24;;;;;;;59.97;4.57;;;;;;;;;;5071649;28;20232;-69
2022/02/05 04:18:53;;;;;;;60.58;4.30;;;;;;;;;;5071483;28;20205;-69
2022/02/05 04:21:21;;;;;;;58.78;4.03;;;;;;;;;;5055202;28;20301;-69
2022/02/05 04:23:48;;;;;;;61.13;4.40;;;;;;;;;;5051210;28;20229;-68
2022/02/05 04:26:16;;;;;;;59.97;4.40;;;;;;;;;;5051515;28;20201;-69
2022/02/05 04:28:43;;;;;;;59.42;4.32;;;;;;;;;;5051534;28;20516;-69
2022/02/05 04:31:10;;;;;;;59.35;3.97;;;;;;;;;;5051421;28;20293;-69
2022/02/05 04:33:39;;;;;;;61.53;4.53;;;;;;;;;;5051328;28;20232;-69
2022/02/05 04:36:07;;;;;;;59.60;3.90;;;;;;;;;;5051454;28;20608;-69
2022/02/05 04:38:35;;;;;;;66.40;4.70;;;;;;;;;;5050973;28;20264;-68
2022/02/05 04:41:07;;;;;;;61.25;4.47;;;;;;;;;;5051674;28;20210;-69
2022/02/05 04:43:55;;;;;;;60.80;4.25;;;;;;;;;;5051428;28;20237;-69
2022/02/05 04:49:29;;;;;;;59.00;3.58;;;;;;;;;;5051118;28;20205;-69
2022/02/05 04:52:18;;;;;;;59.28;3.63;;;;;;;;;;5057471;28;20209;-70
2022/02/05 04:55:11;;;;;;;61.25;4.40;;;;;;;;;;5071208;28;20218;-70
2022/02/05 04:57:55;;;;;;;58.97;4.15;;;;;;;;;;5071130;28;20267;-70
2022/02/05 05:00:38;;;;;;;59.17;4.50;;;;;;;;;;5071480;28;20589;-70
2022/02/05 05:03:27;;;;;;;64.10;4.90;;;;;;;;;;5074820;28;20221;-70
2022/02/05 05:06:12;;;;;;;60.45;4.25;;;;;;;;;;5074942;28;20247;-70
2022/02/05 05:08:47;;;;;;;61.53;3.97;;;;;;;;;;5074786;28;20212;-70
2022/02/05 05:19:34;;;;;;;59.63;3.88;;;;;;;;;;5074686;28;20220;-70
2022/02/05 05:22:03;;;;;;;61.13;4.20;;;;;;;;;;5074522;28;20213;-70
2022/02/05 05:24:32;;;;;;;63.33;4.35;;;;;;;;;;5074366;28;20600;-70
2022/02/05 05:26:59;;;;;;;58.60;4.10;;;;;;;;;;5074712;28;20305;-70
2022/02/05 05:29:26;;;;;;;61.97;4.30;;;;;;;;;;5071814;28;20216;-70
2022/02/05 05:31:54;;;;;;;59.20;3.75;;;;;;;;;;5074541;28;20583;-70
2022/02/05 05:34:21;;;;;;;65.65;4.13;;;;;;;;;;5074279;28;20337;-70
2022/02/05 05:36:49;;;;;;;59.38;3.60;;;;;;;;;;5074283;28;20217;-70
2022/02/05 05:39:17;;;;;;;62.10;4.28;;;;;;;;;;5074289;28;20259;-70
2022/02/05 05:41:44;;;;;;;60.63;4.15;;;;;;;;;;5074389;28;20688;-70
2022/02/05 05:47:13;;;;;;;61.60;4.60;;;;;;;;;;5064959;28;20197;-70
2022/02/05 05:49:56;;;;;;;60.05;4.10;;;;;;;;;;5074148;28;20206;-70
2022/02/05 05:52:24;;;;;;;58.75;4.18;;;;;;;;;;5074254;28;20209;-70
2022/02/05 05:54:52;;;;;;;60.55;3.90;;;;;;;;;;5074404;28;20579;-70
2022/02/05 05:57:20;;;;;;;60.75;3.90;;;;;;;;;;5074185;28;20236;-70
2022/02/05 05:59:47;;;;;;;58.85;3.67;;;;;;;;;;5069241;28;20213;-70
2022/02/05 06:02:14;;;;;;;59.10;3.75;;;;;;;;;;5054236;28;20213;-71
2022/02/05 06:04:41;;;;;;;59.75;4.00;;;;;;;;;;5053703;28;20237;-70
2022/02/05 06:07:08;;;;;;;60.63;3.85;;;;;;;;;;5053765;28;20241;-70
2022/02/05 06:09:40;;;;;;;59.95;4.18;;;;;;;;;;5053774;28;20232;-70
2022/02/05 06:12:09;;;;;;;59.97;4.07;;;;;;;;;;5053568;28;20214;-70
2022/02/05 06:14:37;;;;;;;61.35;3.80;;;;;;;;;;5053826;28;20269;-70
2022/02/05 06:17:07;;;;;;;58.80;3.90;;;;;;;;;;5053733;28;20230;-70
2022/02/05 06:19:35;;;;;;;59.08;3.78;;;;;;;;;;5053646;28;20585;-70
2022/02/05 06:22:02;;;;;;;59.50;3.30;;;;;;;;;;5053590;28;20241;-70
2022/02/05 06:24:29;;;;;;;60.53;3.92;;;;;;;;;;5053320;28;20236;-70
2022/02/05 06:26:56;;;;;;;59.75;3.78;;;;;;;;;;5053285;28;20376;-70
2022/02/05 06:29:25;;;;;;;60.22;4.00;;;;;;;;;;5053447;28;20312;-71
2022/02/05 06:31:52;;;;;;;61.00;4.32;;;;;;;;;;5059464;28;20201;-71
2022/02/05 06:34:19;;;;;;;59.40;4.60;;;;;;;;;;5073216;28;20226;-69
2022/02/05 06:36:46;;;;;;;63.15;4.00;;;;;;;;;;5073139;28;20226;-70
2022/02/05 06:39:13;;;;;;;60.40;3.83;;;;;;;;;;5072857;28;20568;-70
2022/02/05 06:41:40;;;;;;;61.10;4.32;;;;;;;;;;5073321;28;20292;-70
2022/02/05 06:44:08;;;;;;;59.15;3.83;;;;;;;;;;5073216;28;20308;-70
2022/02/05 06:46:36;;;;;;;59.38;3.58;;;;;;;;;;5073150;28;20208;-70
2022/02/05 06:49:03;;;;;;;59.38;4.25;;;;;;;;;;5072765;28;20212;-71
2022/02/05 06:51:31;;;;;;;61.38;5.05;;;;;;;;;;5073044;28;20205;-70
2022/02/05 06:53:58;;;;;;;60.85;4.30;;;;;;;;;;5072510;28;20225;-69
2022/02/05 06:56:25;;;;;;;63.67;5.18;;;;;;;;;;5072525;28;20336;-69
2022/02/05 06:58:52;;;;;;;61.50;4.22;;;;;;;;;;5072406;28;20210;-69
2022/02/05 07:01:19;;;;;;;61.45;4.70;;;;;;;;;;5072744;28;20209;-69
2022/02/05 07:03:48;;;;;;;62.10;4.65;;;;;;;;;;5059444;28;20223;-69
2022/02/05 07:06:15;;;;;;;59.15;4.45;;;;;;;;;;5052541;28;20229;-70
2022/02/05 07:08:43;;;;;;;64.60;5.32;;;;;;;;;;5052512;28;20637;-69
2022/02/05 07:11:10;;;;;;;65.65;6.32;;;;;;;;;;5052685;28;20297;-69
2022/02/05 07:13:37;;;;;;;60.33;5.32;;;;;;;;;;5052440;28;20313;-69
2022/02/05 07:16:10;;;;;;;61.58;4.82;;;;;;;;;;5052527;28;20316;-69
2022/02/05 07:18:46;;;;;;;61.15;4.15;;;;;;;;;;5052455;28;20283;-69
2022/02/05 07:21:17;;;;;;;61.20;3.88;;;;;;;;;;5052458;28;20758;-69
2022/02/05 07:23:56;;;;;;;62.88;3.80;;;;;;;;;;5052077;28;20222;-69
2022/02/05 07:29:14;;;;;;;60.78;3.47;;;;;;;;;;5052038;28;20252;-69
2022/02/05 07:31:44;;;;;;;59.33;3.72;;;;;;;;;;5052389;28;20257;-69
2022/02/05 07:34:11;;;;;;;60.67;4.13;;;;;;;;;;5050810;28;20665;-69
2022/02/05 07:36:40;;;;;;;61.65;3.72;;;;;;;;;;5052126;28;20222;-69
2022/02/05 07:39:08;;;;;;;59.38;3.65;;;;;;;;;;5051809;28;20321;-69
2022/02/05 07:41:36;;;;;;;61.38;4.88;;;;;;;;;;5052030;28;20210;-69
2022/02/05 07:44:03;;;;;;;58.95;3.75;;;;;;;;;;5052065;28;20313;-69
2022/02/05 07:46:30;;;;;;;61.05;3.53;;;;;;;;;;5052082;28;20202;-69
2022/02/05 07:48:58;;;;;;;61.95;4.85;;;;;;;;;;5051894;28;20293;-69
2022/02/05 07:51:25;;;;;;;63.85;4.47;;;;;;;;;;5052019;28;20237;-69
2022/02/05 07:53:53;;;;;;;59.53;4.10;;;;;;;;;;5051845;28;20261;-69
2022/02/05 07:56:20;;;;;;;63.30;3.97;;;;;;;;;;5051632;28;20224;-69
2022/02/05 07:58:48;;;;;;;59.72;4.25;;;;;;;;;;5051719;28;20303;-69
2022/02/05 08:01:15;;;;;;;60.03;3.92;;;;;;;;;;5051976;28;20589;-69
2022/02/05 08:03:42;;;;;;;60.75;4.70;;;;;;;;;;5051804;28;20230;-69
2022/02/05 08:06:15;;;;;;;62.80;4.05;;;;;;;;;;5049662;28;20213;-69
2022/02/05 08:08:43;;;;;;;60.10;4.43;;;;;;;;;;5051404;28;20217;-69
2022/02/05 08:11:15;;;;;;;63.72;3.80;;;;;;;;;;5051885;28;20206;-70
2022/02/05 08:13:44;;;;;;;61.53;4.63;;;;;;;;;;5051783;28;20279;-70
2022/02/05 08:16:26;;;;;;;59.95;3.25;;;;;;;;;;5064988;28;20259;-69
2022/02/05 08:18:53;;;;;;;68.53;4.55;;;;;;;;;;5071478;28;20245;-70
2022/02/05 08:21:20;;;;;;;59.72;4.18;;;;;;;;;;5071541;28;20209;-69
2022/02/05 08:23:48;;;;;;;59.88;4.40;;;;;;;;;;5085321;28;20264;-69
2022/02/05 08:26:16;;;;;;;63.67;4.32;;;;;;;;;;5093347;28;20213;-69
2022/02/05 08:28:44;;;;;;;62.80;4.00;;;;;;;;;;5092865;28;20216;-69
2022/02/05 08:31:12;;;;;;;61.58;4.63;;;;;;;;;;5092114;28;20233;-69
2022/02/05 08:33:43;;;;;;;59.03;3.83;;;;;;;;;;5092251;28;20253;-70
2022/02/05 08:36:10;;;;;;;59.50;3.40;;;;;;;;;;5094467;28;20244;-70
2022/02/05 08:38:37;;;;;;;59.47;3.70;;;;;;;;;;5092662;28;20268;-70
2022/02/05 08:41:04;;;;;;;59.85;4.32;;;;;;;;;;5075266;28;20205;-70
2022/02/05 08:43:33;;;;;;;58.67;3.67;;;;;;;;;;5074886;28;20227;-69
2022/02/05 08:46:00;;;;;;;67.60;3.90;;;;;;;;;;5075161;28;20240;-69
2022/02/05 08:48:27;;;;;;;61.85;4.13;;;;;;;;;;5074832;28;20639;-69
2022/02/05 08:50:55;;;;;;;60.33;3.78;;;;;;;;;;5075311;28;20206;-69
2022/02/05 08:53:22;;;;;;;64.72;3.75;;;;;;;;;;5075106;28;20257;-69
2022/02/05 08:55:50;;;;;;;61.15;4.55;;;;;;;;;;5075031;28;20211;-69
2022/02/05 08:58:17;;;;;;;63.72;5.10;;;;;;;;;;5074692;28;20240;-69
2022/02/05 09:00:49;;;;;;;60.22;4.25;;;;;;;;;;5075000;28;20233;-69
2022/02/05 09:03:26;;;;;;;61.88;3.92;;;;;;;;;;5074849;28;20230;-69
2022/02/05 09:05:54;;;;;;;61.45;4.70;;;;;;;;;;5074350;28;20201;-70
2022/02/05 09:08:26;;;;;;;61.75;4.40;;;;;;;;;;5072677;28;20560;-70
2022/02/05 09:11:03;;;;;;;62.90;3.90;;;;;;;;;;5074599;28;20288;-69
2022/02/05 09:13:55;;;;;;;60.03;4.00;;;;;;;;;;5074705;28;20316;-69
2022/02/05 09:16:24;;;;;;;59.70;4.30;;;;;;;;;;5054918;28;20293;-69
2022/02/05 09:18:52;;;;;;;59.45;3.78;;;;;;;;;;5054361;28;20206;-69
2022/02/05 09:21:20;;;;;;;60.03;3.88;;;;;;;;;;5054722;28;20210;-69
2022/02/05 09:23:52;;;;;;;62.60;4.10;;;;;;;;;;5054413;28;20572;-69
2022/02/05 09:26:20;;;;;;;61.35;4.00;;;;;;;;;;5054581;28;20214;-70
2022/02/05 09:28:48;;;;;;;62.53;3.70;;;;;;;;;;5054561;28;20449;-70
2022/02/05 09:31:30;;;;;;;62.47;3.92;;;;;;;;;;5054409;28;20451;-70
2022/02/05 09:33:59;;;;;;;59.53;3.90;;;;;;;;;;5054248;28;20726;-69
2022/02/05 09:36:26;;;;;;;58.47;3.40;;;;;;;;;;5054282;28;20452;-69
2022/02/05 09:38:54;;;;;;;59.38;3.35;;;;;;;;;;5054366;28;20480;-70
2022/02/05 09:41:21;;;;;;;61.53;3.57;;;;;;;;;;5054479;28;20206;-69
2022/02/05 09:43:49;;;;;;;58.63;3.30;;;;;;;;;;5054154;28;20471;-69
2022/02/05 09:46:16;;;;;;;63.00;3.87;;;;;;;;;;5060011;28;20542;-69
2022/02/05 09:48:45;;;;;;;58.17;2.90;;;;;;;;;;5073199;28;20526;-69
2022/02/05 09:51:18;;;;;;;60.57;3.93;;;;;;;;;;5074123;28;20521;-69
2022/02/05 09:53:48;;;;;;;62.10;3.60;;;;;;;;;;5074196;28;20471;-69
2022/02/05 09:56:15;;;;;;;61.60;3.60;;;;;;;;;;5074125;28;20543;-70
2022/02/05 09:58:43;;;;;;;59.07;3.00;;;;;;;;;;5073743;28;20489;-70
2022/02/05 10:01:14;;;;;;;61.37;3.67;;;;;;;;;;5073895;28;20974;-70
2022/02/05 10:03:42;;;;;;;66.60;3.80;;;;;;;;;;5074029;28;20499;-70
2022/02/05 10:06:12;;;;;;;59.50;3.40;;;;;;;;;;5073987;28;20443;-70
2022/02/05 10:08:41;;;;;;;60.70;3.27;;;;;;;;;;5073767;28;20432;-71
2022/02/05 10:11:09;;;;;;;66.10;3.30;;;;;;;;;;5073753;28;20448;-71
2022/02/05 10:13:38;;;;;;;61.43;3.13;;;;;;;;;;5073611;28;20471;-71
2022/02/05 10:16:06;;;;;;;58.60;2.73;;;;;;;;;;5073535;28;21041;-70
2022/02/05 10:18:34;;;;;;;59.80;3.10;;;;;;;;;;5060215;28;20610;-70
2022/02/05 10:21:02;;;;;;;63.20;3.53;;;;;;;;;;5053698;28;20449;-71
2022/02/05 10:23:29;;;;;;;65.97;3.73;;;;;;;;;;5053482;28;20473;-70
2022/02/05 10:25:59;;;;;;;58.50;2.70;;;;;;;;;;5053599;28;20855;-71
2022/02/05 10:28:26;;;;;;;64.20;3.40;;;;;;;;;;5053394;28;20479;-70
2022/02/05 10:30:55;;;;;;;59.70;3.47;;;;;;;;;;5053167;28;20452;-69
2022/02/05 10:33:26;;;;;;;59.03;3.40;;;;;;;;;;5053272;28;20551;-69
2022/02/05 10:36:06;;;;;;;60.00;3.43;;;;;;;;;;5053339;28;21000;-71
2022/02/05 10:38:53;;;;;;;59.80;3.27;;;;;;;;;;5052920;28;20481;-70
2022/02/05 10:44:15;;;;;;;60.27;3.00;;;;;;;;;;5053136;28;20623;-69
2022/02/05 10:46:46;;;;;;;59.10;3.20;;;;;;;;;;5053104;28;20882;-68
2022/02/05 10:49:13;;;;;;;59.43;2.80;;;;;;;;;;5051119;28;20467;-68
2022/02/05 10:51:43;;;;;;;62.33;3.77;;;;;;;;;;5052896;28;20445;-68
2022/02/05 10:54:17;;;;;;;60.30;3.20;;;;;;;;;;5052936;28;20473;-69
2022/02/05 10:57:01;;;;;;;62.47;3.20;;;;;;;;;;5053131;28;20460;-69
2022/02/05 10:59:48;;;;;;;58.97;3.20;;;;;;;;;;5051670;28;20941;-70
2022/02/05 11:05:18;;;;;;;60.27;3.80;;;;;;;;;;5052864;28;20494;-70
2022/02/05 11:07:45;;;;;;;59.37;3.00;;;;;;;;;;5052395;28;20451;-70
2022/02/05 11:21:24;;;;;;;59.63;3.03;;;;;;;;;;5087772;28;20554;-69
2022/02/05 11:23:52;;;;;;;60.00;3.37;;;;;;;;;;5089174;28;20978;-69
2022/02/05 11:26:20;;;;;;;58.67;3.10;;;;;;;;;;5089333;28;20530;-70
2022/02/05 11:28:49;;;;;;;61.07;3.33;;;;;;;;;;5088595;28;20474;-69
2022/02/05 11:31:17;;;;;;;58.50;2.90;;;;;;;;;;5089428;28;20518;-69
2022/02/05 11:33:44;;;;;;;60.37;3.23;;;;;;;;;;5089018;28;20467;-71
2022/02/05 11:39:01;;;;;;;60.07;2.73;;;;;;;;;;5088854;28;20457;-70
2022/02/05 11:41:28;;;;;;;60.00;2.90;;;;;;;;;;5088512;28;20438;-70
2022/02/05 11:44:15;;;;;;;60.30;2.80;;;;;;;;;;5088450;28;20494;-70
2022/02/05 11:46:43;;;;;;;60.30;2.63;;;;;;;;;;5089016;28;20442;-70
2022/02/05 11:49:11;;;;;;;59.37;3.40;;;;;;;;;;5088571;28;20869;-70
2022/02/05 11:51:45;;;;;;;58.77;2.67;;;;;;;;;;5086303;28;20451;-72
2022/02/05 11:54:17;;;;;;;61.33;2.77;;;;;;;;;;5088475;28;20470;-70
2022/02/05 11:56:50;;;;;;;58.37;2.80;;;;;;;;;;5088540;28;20446;-71
2022/02/05 11:59:18;;;;;;;59.00;2.67;;;;;;;;;;5088109;28;20443;-70
2022/02/05 12:01:46;;;;;;;58.83;3.10;;;;;;;;;;5088623;28;20479;-71
2022/02/05 12:04:15;;;;;;;57.90;2.93;;;;;;;;;;5088221;28;21002;-70
2022/02/05 12:06:46;;;;;;;58.03;2.60;;;;;;;;;;5088736;28;20443;-70
2022/02/05 12:09:28;;;;;;;58.97;2.87;;;;;;;;;;5088077;28;20451;-70
2022/02/05 12:11:57;;;;;;;57.77;2.40;;;;;;;;;;5088162;28;20668;-72
2022/02/05 12:14:24;;;;;;;59.70;2.80;;;;;;;;;;5088145;28;20553;-71
2022/02/05 12:17:05;;;;;;;60.87;2.90;;;;;;;;;;5088246;28;20724;-70
2022/02/05 12:19:33;;;;;;;58.77;2.67;;;;;;;;;;5088013;28;21012;-70
2022/02/05 12:22:10;;;;;;;59.07;2.70;;;;;;;;;;5088419;28;20872;-71
2022/02/05 12:25:03;;;;;;;61.10;2.90;;;;;;;;;;5087913;28;20471;-71
2022/02/05 12:27:32;;;;;;;58.10;2.50;;;;;;;;;;5088156;28;20439;-71
2022/02/05 12:30:35;;;;;;;59.17;2.37;;;;;;;;;;5085417;28;20447;-71
2022/02/05 12:33:03;;;;;;;59.07;3.00;;;;;;;;;;5011721;28;20560;-71
2022/02/05 12:35:30;;;;;;;61.60;3.10;;;;;;;;;;5012367;28;20468;-71
2022/02/05 12:38:00;;;;;;;60.33;2.47;;;;;;;;;;5012248;28;20446;-71
2022/02/05 12:40:28;;;;;;;57.53;2.40;;;;;;;;;;5012448;28;20488;-71
2022/02/05 12:42:57;;;;;;;59.93;2.50;;;;;;;;;;5012201;28;20843;-70
2022/02/05 12:45:35;;;;;;;58.20;2.57;;;;;;;;;;5012232;28;20553;-70
2022/02/05 12:48:06;;;;;;;58.40;2.30;;;;;;;;;;5011916;28;20468;-71
2022/02/05 12:50:33;;;;;;;59.70;2.80;;;;;;;;;;5012011;28;20527;-71
2022/02/05 12:53:01;;;;;;;60.97;2.80;;;;;;;;;;5012038;28;20493;-71
2022/02/05 12:55:33;;;;;;;57.93;2.30;;;;;;;;;;5012112;28;20450;-69
2022/02/05 12:58:02;;;;;;;60.47;3.20;;;;;;;;;;5011827;28;20482;-70
2022/02/05 13:00:30;;;;;;;60.67;2.70;;;;;;;;;;5009296;28;20483;-71
2022/02/05 13:02:57;;;;;;;59.93;3.30;;;;;;;;;;5017888;28;20467;-71
2022/02/05 13:05:32;;;;;;;59.27;2.80;;;;;;;;;;5074235;28;20894;-71
2022/02/05 13:07:59;;;;;;;60.00;2.47;;;;;;;;;;5073963;28;20455;-71
2022/02/05 13:10:27;;;;;;;58.20;2.50;;;;;;;;;;5073960;28;20447;-71
2022/02/05 13:12:57;;;;;;;58.27;2.47;;;;;;;;;;5073602;28;20478;-71
2022/02/05 13:15:27;;;;;;;60.20;2.70;;;;;;;;;;5074163;28;20448;-71
2022/02/05 13:18:11;;;;;;;57.93;2.50;;;;;;;;;;5073579;28;20459;-71
2022/02/05 13:26:17;;;;;;;58.40;2.30;;;;;;;;;;5073610;28;20508;-70
2022/02/05 13:28:50;;;;;;;59.70;2.63;;;;;;;;;;5073125;28;21017;-70
2022/02/05 13:34:12;;;;;;;58.10;2.57;;;;;;;;;;5053278;28;20444;-70
2022/02/05 13:36:45;;;;;;;60.73;2.60;;;;;;;;;;5053587;28;20941;-70
2022/02/05 13:39:26;;;;;;;58.37;2.77;;;;;;;;;;5053259;28;20448;-70
2022/02/05 13:41:58;;;;;;;57.77;2.60;;;;;;;;;;5053228;28;20515;-69
2022/02/05 13:44:28;;;;;;;62.90;3.53;;;;;;;;;;5051911;28;20518;-71
2022/02/05 13:47:03;;;;;;;58.57;3.07;;;;;;;;;;5053024;28;20453;-70
2022/02/05 13:49:30;;;;;;;59.33;3.10;;;;;;;;;;5052510;28;20543;-69
2022/02/05 13:52:05;;;;;;;59.40;3.10;;;;;;;;;;5052589;28;21008;-69
2022/02/05 13:54:35;;;;;;;59.17;2.93;;;;;;;;;;5052724;28;20472;-69
2022/02/05 13:57:02;;;;;;;58.50;3.00;;;;;;;;;;5052865;28;20921;-69
2022/02/05 13:59:30;;;;;;;58.87;2.90;;;;;;;;;;5052827;28;20454;-69
2022/02/05 14:01:57;;;;;;;58.80;3.00;;;;;;;;;;5050875;28;20484;-70
2022/02/05 14:04:25;;;;;;;62.20;3.03;;;;;;;;;;5052324;28;20989;-70
2022/02/05 14:06:54;;;;;;;63.07;3.00;;;;;;;;;;5052897;28;20471;-70
2022/02/05 14:09:25;;;;;;;58.60;2.73;;;;;;;;;;5052237;28;20543;-70
2022/02/05 14:11:52;;;;;;;59.13;2.90;;;;;;;;;;5052452;28;20831;-70
2022/02/05 14:14:27;;;;;;;60.60;3.10;;;;;;;;;;5052210;28;21053;-70
2022/02/05 14:16:54;;;;;;;59.00;2.90;;;;;;;;;;5052699;28;20494;-69
2022/02/05 14:19:21;;;;;;;57.70;2.43;;;;;;;;;;5052104;28;20814;-69
2022/02/05 14:21:52;;;;;;;60.07;2.77;;;;;;;;;;5052375;28;20480;-69
2022/02/05 14:24:20;;;;;;;59.40;3.07;;;;;;;;;;5052448;28;20526;-69
2022/02/05 14:26:56;;;;;;;59.00;3.37;;;;;;;;;;5052499;28;20460;-69
2022/02/05 14:29:23;;;;;;;60.97;3.20;;;;;;;;;;5052135;28;20514;-69
2022/02/05 14:31:54;;;;;;;58.77;2.90;;;;;;;;;;5051893;28;20453;-70
2022/02/05 14:34:33;;;;;;;59.17;3.67;;;;;;;;;;5050037;28;20508;-70
2022/02/05 14:42:27;;;;;;;59.70;2.93;;;;;;;;;;5052019;28;20756;-70
2022/02/05 14:44:54;;;;;;;61.33;3.30;;;;;;;;;;5052464;28;20469;-70
2022/02/05 14:47:22;;;;;;;60.70;2.70;;;;;;;;;;5052005;28;20445;-70
2022/02/05 14:49:49;;;;;;;59.27;2.50;;;;;;;;;;5052019;28;20820;-70
2022/02/05 14:52:18;;;;;;;59.00;2.70;;;;;;;;;;5051737;28;20437;-70
2022/02/05 14:54:45;;;;;;;59.10;3.03;;;;;;;;;;5054105;28;20469;-71
2022/02/05 14:57:13;;;;;;;58.20;2.60;;;;;;;;;;5051434;28;20527;-71
2022/02/05 14:59:41;;;;;;;59.17;3.03;;;;;;;;;;5052013;28;20556;-71
2022/02/05 15:02:09;;;;;;;66.43;3.70;;;;;;;;;;5051742;28;20516;-71
2022/02/05 15:04:36;;;;;;;59.40;3.43;;;;;;;;;;5051773;28;20485;-71
2022/02/05 15:07:04;;;;;;;58.47;3.10;;;;;;;;;;5050366;28;20535;-70
2022/02/05 15:09:33;;;;;;;58.73;3.30;;;;;;;;;;5051625;28;20452;-71
2022/02/05 15:12:00;;;;;;;58.50;3.03;;;;;;;;;;5051911;28;20451;-70
2022/02/05 15:14:27;;;;;;;59.73;2.93;;;;;;;;;;5051986;28;20551;-68
2022/02/05 15:16:54;;;;;;;60.40;3.07;;;;;;;;;;5052000;28;20479;-70
2022/02/05 15:19:22;;;;;;;58.30;2.97;;;;;;;;;;5051312;28;20466;-70
2022/02/05 15:21:49;;;;;;;58.50;3.07;;;;;;;;;;5051635;28;21083;-70
2022/02/05 15:24:16;;;;;;;58.47;2.97;;;;;;;;;;5051555;28;21004;-71
2022/02/05 15:26:44;;;;;;;59.47;2.97;;;;;;;;;;5051823;28;20453;-71
2022/02/05 15:29:13;;;;;;;59.30;3.00;;;;;;;;;;5051413;28;20965;-70
2022/02/05 15:31:42;;;;;;;61.87;3.50;;;;;;;;;;5051558;28;20480;-70
2022/02/05 15:34:09;;;;;;;59.40;3.50;;;;;;;;;;5051974;28;20483;-70
2022/02/05 15:36:43;;;;;;;60.70;4.17;;;;;;;;;;5051552;28;20452;-70
2022/02/05 15:39:27;;;;;;;60.00;4.23;;;;;;;;;;5051771;28;20506;-70
2022/02/05 15:44:46;;;;;;;59.60;3.10;;;;;;;;;;5012962;28;20463;-69
2022/02/05 15:47:14;;;;;;;61.00;3.10;;;;;;;;;;5051351;28;20455;-69
2022/02/05 15:49:41;;;;;;;58.10;2.80;;;;;;;;;;5051671;28;20446;-68
2022/02/05 15:52:10;;;;;;;61.03;3.43;;;;;;;;;;5051520;28;20945;-69
2022/02/05 15:54:37;;;;;;;59.53;3.17;;;;;;;;;;5051616;28;20468;-69
2022/02/05 15:57:18;;;;;;;62.90;2.93;;;;;;;;;;5051725;28;20531;-70
2022/02/05 15:59:59;;;;;;;58.40;2.90;;;;;;;;;;5051651;28;20444;-70
2022/02/05 16:02:26;;;;;;;60.30;3.27;;;;;;;;;;5051624;28;20546;-69
2022/02/05 16:04:53;;;;;;;64.30;2.90;;;;;;;;;;5051941;28;20487;-69
2022/02/05 16:07:20;;;;;;;59.27;3.17;;;;;;;;;;5053685;28;20448;-69
2022/02/05 16:09:47;;;;;;;59.47;3.27;;;;;;;;;;5055457;28;20456;-69
2022/02/05 16:12:16;;;;;;;63.43;3.30;;;;;;;;;;5055196;28;20441;-69
2022/02/05 16:14:43;;;;;;;58.70;3.10;;;;;;;;;;5055476;28;20472;-69
2022/02/05 16:17:10;;;;;;;59.67;3.40;;;;;;;;;;5055042;28;20522;-69
2022/02/05 16:19:38;;;;;;;58.90;3.20;;;;;;;;;;5055301;28;20894;-69
2022/02/05 16:22:06;;;;;;;61.23;2.60;;;;;;;;;;5055215;28;20553;-69
2022/02/05 16:24:33;;;;;;;61.13;3.20;;;;;;;;;;5054670;28;20563;-69
2022/02/05 16:27:00;;;;;;;59.07;2.90;;;;;;;;;;5055087;28;20936;-69
2022/02/05 16:29:28;;;;;;;58.77;3.10;;;;;;;;;;5054915;28;20547;-69
2022/02/05 16:31:56;;;;;;;58.57;2.67;;;;;;;;;;5054946;28;20495;-69
2022/02/05 16:34:25;;;;;;;58.93;3.30;;;;;;;;;;5055063;28;20500;-69
2022/02/05 16:36:52;;;;;;;58.90;2.97;;;;;;;;;;5054824;28;20448;-69
2022/02/05 16:39:24;;;;;;;62.67;3.63;;;;;;;;;;5054530;28;20202;-69
2022/02/05 16:41:51;;;;;;;59.27;3.70;;;;;;;;;;5055125;28;21065;-69
2022/02/05 16:44:18;;;;;;;64.20;3.60;;;;;;;;;;5054409;28;20468;-69